Terminal Aerodrome Forecast
Issued by NWS Upton, NY

Home | Current Version | Previous Version | Text Only | Print | Product List | Glossary On
Versions: 1 2 3 4 5 6 7 8 9 10 11 12 13 14 15 16 17 18 19 20 21 22 23 24 25 26 27 28 29 30 31 32 33 34 35 36
000
FTUS41 KOKX 270500
TAFJFK
TAF
KJFK 270531Z 2706/2812 33014KT P6SM BKN030 BKN100
     FM270700 34014KT P6SM SCT030 BKN045 BKN100
     FM271000 31010KT P6SM BKN030
     FM280700 31010KT P6SM SCT030 BKN100=

USA.gov is the U.S. government's official web portal to all federal, state and local government web resources and services.